createdAt,value
2022-08-19T00:01:59.367Z,76.61
2022-08-19T00:07:01.655Z,77.22
2022-08-19T00:12:02.475Z,76.99
2022-08-19T00:17:05.032Z,77.80
2022-08-19T00:22:06.214Z,77.59
2022-08-19T00:27:26.126Z,77.73
2022-08-19T00:32:28.877Z,77.93
2022-08-19T00:37:31.237Z,79.10
2022-08-19T00:42:31.848Z,78.99
2022-08-19T00:47:33.798Z,79.44
2022-08-19T00:52:36.889Z,80.24
2022-08-19T00:57:41.872Z,80.59
2022-08-19T01:02:44.144Z,81.28
2022-08-19T01:07:46.222Z,82.12
2022-08-19T01:12:47.765Z,82.29
2022-08-19T01:17:50.481Z,82.88
2022-08-19T01:22:55.170Z,82.84
2022-08-19T01:27:56.553Z,83.26
2022-08-19T01:33:06.056Z,83.12
2022-08-19T01:38:12.438Z,82.90
2022-08-19T01:43:13.125Z,83.03
2022-08-19T01:48:14.328Z,83.92
2022-08-19T01:53:16.279Z,84.14
2022-08-19T01:58:21.489Z,84.00
2022-08-19T02:03:22.154Z,84.22
2022-08-19T02:08:24.225Z,84.63
2022-08-19T02:13:26.378Z,85.13
2022-08-19T02:18:28.241Z,85.10
2022-08-19T02:23:30.291Z,85.58
2022-08-19T02:28:30.873Z,84.56
2022-08-19T02:33:31.511Z,84.73
2022-08-19T02:38:33.670Z,84.36
2022-08-19T02:43:36.845Z,84.45
2022-08-19T02:48:37.726Z,84.52
2022-08-19T02:53:39.646Z,85.17
2022-08-19T02:58:40.361Z,85.41
2022-08-19T03:03:41.012Z,85.57
2022-08-19T03:08:45.537Z,85.79
2022-08-19T03:13:46.319Z,85.68
2022-08-19T03:18:47.086Z,85.56
2022-08-19T03:23:49.163Z,85.77
2022-08-19T03:28:58.326Z,85.83
2022-08-19T03:33:59.455Z,85.64
2022-08-19T03:39:03.388Z,85.63
2022-08-19T03:44:05.716Z,85.59
2022-08-19T03:49:14.372Z,85.09
2022-08-19T03:54:18.845Z,84.84
2022-08-19T03:59:22.111Z,85.36
2022-08-19T04:04:23.116Z,84.52
2022-08-19T04:09:25.550Z,84.81
2022-08-19T04:14:27.795Z,85.48
2022-08-19T04:19:30.943Z,85.21
2022-08-19T04:24:33.223Z,85.47
2022-08-19T04:29:34.697Z,85.12
2022-08-19T04:34:35.309Z,85.80
2022-08-19T04:39:58.740Z,85.97
2022-08-19T04:45:05.411Z,85.36
2022-08-19T04:50:12.800Z,85.50
2022-08-19T04:55:15.453Z,84.68
2022-08-19T05:00:16.386Z,84.39
2022-08-19T05:05:17.285Z,84.85
2022-08-19T05:10:19.806Z,84.84
2022-08-19T05:15:20.843Z,84.53
2022-08-19T05:20:38.906Z,85.36
2022-08-19T05:25:41.786Z,85.45
2022-08-19T05:30:47.416Z,85.66
2022-08-19T05:35:49.457Z,85.91
2022-08-19T05:40:51.763Z,86.13
2022-08-19T05:45:52.577Z,84.93
2022-08-19T05:50:53.181Z,85.16
2022-08-19T05:55:55.117Z,85.08
2022-08-19T06:00:57.229Z,85.94
2022-08-19T06:05:59.638Z,86.88
2022-08-19T06:11:14.046Z,87.90
2022-08-19T06:16:21.798Z,87.37
2022-08-19T06:21:23.397Z,86.37
2022-08-19T06:26:26.089Z,85.11
2022-08-19T06:31:29.872Z,84.54
2022-08-19T06:36:34.776Z,84.61
2022-08-19T06:41:43.601Z,84.85
2022-08-19T06:46:53.609Z,84.80
2022-08-19T06:51:57.730Z,84.98
2022-08-19T06:57:02.911Z,85.89
2022-08-19T07:02:07.433Z,86.93
2022-08-19T07:07:20.291Z,88.38
2022-08-19T07:12:23.355Z,89.21
2022-08-19T07:17:23.985Z,88.78
2022-08-19T07:22:24.691Z,89.06
2022-08-19T07:27:26.682Z,90.15
2022-08-19T07:32:28.024Z,90.62
2022-08-19T07:37:33.142Z,91.38
2022-08-19T07:42:35.553Z,92.65
2022-08-19T07:47:49.645Z,94.31
2022-08-19T07:52:52.775Z,95.95
2022-08-19T07:57:54.849Z,97.32
2022-08-19T08:02:56.166Z,97.41
2022-08-19T08:08:14.765Z,97.85
2022-08-19T08:13:17.432Z,98.49
2022-08-19T08:18:18.235Z,97.93
2022-08-19T08:23:26.746Z,97.46
2022-08-19T08:28:30.608Z,98.24
2022-08-19T08:33:33.701Z,98.65
2022-08-19T08:38:39.662Z,99.94
2022-08-19T08:43:44.508Z,99.13
2022-08-19T08:48:54.161Z,97.77
2022-08-19T08:53:55.897Z,95.76
2022-08-19T08:59:02.440Z,95.08
2022-08-19T09:04:05.977Z,93.90
2022-08-19T09:09:16.556Z,91.15
2022-08-19T09:14:50.150Z,89.80
2022-08-19T09:19:55.502Z,87.14
2022-08-19T09:24:56.699Z,84.70
2022-08-19T09:29:58.716Z,82.95
2022-08-19T09:35:01.287Z,82.09
2022-08-19T09:40:05.151Z,81.88
2022-08-19T09:45:10.367Z,81.35
2022-08-19T09:50:16.332Z,80.91
2022-08-19T09:55:18.541Z,80.35
2022-08-19T10:00:21.597Z,79.39
2022-08-19T10:05:42.317Z,79.92
2022-08-19T10:10:46.666Z,79.25
2022-08-19T10:15:51.573Z,77.88
2022-08-19T10:20:54.495Z,76.29
2022-08-19T10:25:55.175Z,76.24
2022-08-19T10:30:57.143Z,74.44
2022-08-19T10:36:01.632Z,71.60
2022-08-19T10:41:09.343Z,71.66
2022-08-19T10:46:14.115Z,71.42
2022-08-19T10:51:35.822Z,69.57
2022-08-19T10:56:56.444Z,70.16
2022-08-19T11:02:03.804Z,70.49
2022-08-19T11:07:05.634Z,69.78
2022-08-19T11:12:07.036Z,69.47
2022-08-19T11:17:09.184Z,68.09
2022-08-19T11:22:10.799Z,68.45
2022-08-19T11:27:16.728Z,69.07
2022-08-19T11:32:18.653Z,70.57
2022-08-19T11:37:19.327Z,72.54
2022-08-19T11:42:37.933Z,70.05
2022-08-19T11:47:40.079Z,69.95
2022-08-19T11:52:40.691Z,71.58
2022-08-19T11:57:44.469Z,72.29
2022-08-19T12:02:46.450Z,73.23
2022-08-19T12:07:47.229Z,72.55
2022-08-19T12:12:54.628Z,71.74
2022-08-19T12:18:01.734Z,74.57
2022-08-19T12:23:04.461Z,76.08
2022-08-19T12:28:05.558Z,76.62
2022-08-19T12:33:07.481Z,75.68
2022-08-19T12:38:08.109Z,74.22
2022-08-19T12:43:09.535Z,73.41
2022-08-19T12:48:33.936Z,73.06
2022-08-19T12:53:32.144Z,72.53
2022-08-19T12:58:35.999Z,71.82
2022-08-19T13:03:40.620Z,70.84
2022-08-19T13:08:41.827Z,70.64
2022-08-19T13:13:46.010Z,70.49
2022-08-19T13:18:48.957Z,71.54
2022-08-19T13:23:49.711Z,71.95
2022-08-19T13:29:08.367Z,72.52
2022-08-19T13:34:10.419Z,74.48
2022-08-19T13:39:11.931Z,75.02
2022-08-19T13:44:12.597Z,74.85
2022-08-19T13:49:16.127Z,75.36
2022-08-19T13:54:17.829Z,74.48
2022-08-19T13:59:18.638Z,74.69
2022-08-19T14:04:20.572Z,75.66
2022-08-19T14:09:21.191Z,77.03
2022-08-19T14:14:22.377Z,77.09
2022-08-19T14:19:24.273Z,76.67
2022-08-19T14:24:25.456Z,75.62
2022-08-19T14:29:26.511Z,75.64
2022-08-19T14:34:28.521Z,76.55
2022-08-19T14:39:29.188Z,77.23
2022-08-19T14:44:29.775Z,77.36
2022-08-19T14:49:34.891Z,77.49
2022-08-19T14:54:36.355Z,77.70
2022-08-19T14:59:37.073Z,77.35
2022-08-19T15:04:39.879Z,77.79
2022-08-19T15:09:40.637Z,77.66
2022-08-19T15:14:43.110Z,77.84
2022-08-19T15:19:45.414Z,77.83
2022-08-19T15:24:48.217Z,78.36
2022-08-19T15:29:48.969Z,78.27
2022-08-19T15:34:57.043Z,78.64
2022-08-19T15:39:57.814Z,78.51
2022-08-19T15:45:00.622Z,78.29
2022-08-19T15:50:06.799Z,77.02
2022-08-19T15:55:11.549Z,76.98
2022-08-19T16:00:36.027Z,76.76
2022-08-19T16:05:56.736Z,76.61
2022-08-19T16:10:57.472Z,76.50
2022-08-19T16:15:58.179Z,76.04
2022-08-19T16:21:00.131Z,75.78
2022-08-19T16:26:00.849Z,75.89
2022-08-19T16:31:01.496Z,76.69
2022-08-19T16:36:07.251Z,75.95
2022-08-19T16:41:09.369Z,76.17
2022-08-19T16:46:11.106Z,76.21
2022-08-19T16:51:15.504Z,76.56
2022-08-19T16:56:16.175Z,76.73
2022-08-19T17:01:17.542Z,76.94
2022-08-19T17:06:24.054Z,77.24
2022-08-19T17:11:26.420Z,77.55
2022-08-19T17:16:30.151Z,76.97
2022-08-19T17:21:34.115Z,77.06
2022-08-19T17:26:34.830Z,77.16
2022-08-19T17:31:35.706Z,77.16
2022-08-19T17:36:38.145Z,77.53
2022-08-19T17:41:38.803Z,77.76
2022-08-19T17:46:39.409Z,77.33
2022-08-19T17:51:45.046Z,77.78
2022-08-19T17:56:46.301Z,77.14
2022-08-19T18:01:53.084Z,77.91
2022-08-19T18:06:56.278Z,77.86
2022-08-19T18:11:58.681Z,78.16
2022-08-19T18:17:00.025Z,78.38
2022-08-19T18:22:01.997Z,78.17
2022-08-19T18:27:02.607Z,78.40
2022-08-19T18:32:03.272Z,78.25
2022-08-19T18:37:05.580Z,78.20
2022-08-19T18:42:24.115Z,78.37
2022-08-19T18:47:42.289Z,78.58
2022-08-19T18:52:44.301Z,79.18
2022-08-19T18:57:44.964Z,79.66
2022-08-19T19:02:46.470Z,80.03
2022-08-19T19:07:48.651Z,80.24
2022-08-19T19:12:50.262Z,80.38
2022-08-19T19:17:50.965Z,80.54
2022-08-19T19:22:55.950Z,80.69
2022-08-19T19:27:58.853Z,80.85
2022-08-19T19:33:01.545Z,81.23
2022-08-19T19:38:03.493Z,80.20
2022-08-19T19:43:04.799Z,79.93
2022-08-19T19:48:05.860Z,80.13
2022-08-19T19:53:07.861Z,79.97
2022-08-19T19:58:08.703Z,79.76
2022-08-19T20:03:09.415Z,79.93
2022-08-19T20:08:28.997Z,79.37
2022-08-19T20:13:30.149Z,79.29
2022-08-19T20:18:31.390Z,79.43
2022-08-19T20:23:33.786Z,79.75
2022-08-19T20:28:34.420Z,79.24
2022-08-19T20:33:35.788Z,79.61
2022-08-19T20:38:39.214Z,80.34
2022-08-19T20:43:40.878Z,81.23
2022-08-19T20:48:42.785Z,83.48
2022-08-19T20:53:44.998Z,84.45
2022-08-19T20:58:49.892Z,85.25
2022-08-19T21:03:55.128Z,84.58
2022-08-19T21:08:57.062Z,83.53
2022-08-19T21:13:57.804Z,82.92
2022-08-19T21:18:58.423Z,82.01
2022-08-19T21:24:01.211Z,81.63
2022-08-19T21:29:01.836Z,81.15
2022-08-19T21:34:02.442Z,81.10
2022-08-19T21:39:05.430Z,80.63
2022-08-19T21:44:06.055Z,80.35
2022-08-19T21:49:06.744Z,80.19
2022-08-19T21:54:08.662Z,80.15
2022-08-19T21:59:15.091Z,80.05
2022-08-19T22:04:15.757Z,80.49
2022-08-19T22:09:17.699Z,80.58
2022-08-19T22:14:18.300Z,80.61
2022-08-19T22:19:18.888Z,80.82
2022-08-19T22:24:20.806Z,80.09
2022-08-19T22:29:28.866Z,80.30
2022-08-19T22:34:34.970Z,80.04
2022-08-19T22:39:37.057Z,80.23
2022-08-19T22:44:37.698Z,80.52
2022-08-19T22:49:38.310Z,80.72
2022-08-19T22:54:40.307Z,80.84
2022-08-19T22:59:41.596Z,80.97
2022-08-19T23:04:42.207Z,81.07
2022-08-19T23:09:44.425Z,81.63
2022-08-19T23:14:46.289Z,81.22
2022-08-19T23:19:46.882Z,81.00
2022-08-19T23:24:48.797Z,81.22
2022-08-19T23:30:14.576Z,81.48
2022-08-19T23:35:15.316Z,81.73
2022-08-19T23:40:17.661Z,81.81
2022-08-19T23:45:23.692Z,82.97
2022-08-19T23:50:26.669Z,82.64
2022-08-19T23:55:31.453Z,82.92
